Time;durP1;ratioP1;P1;durP2;ratioP2;P2;SDS_P1;SDS_P2;PMS_P1;PMS_P2;Temp;Humidity;BMP_temperature;BMP_pressure;BME280_temperature;BME280_humidity;BME280_pressure;Samples;Min_cycle;Max_cycle;Signal;HPM_P1;HPM_P2
2023/09/24 00:00:56;;;;;;;;;;;;;;;12.09;100.00;100898.22;5054547;28;19913;-78
2023/09/24 00:03:22;;;;;;;;;;;;;;;12.05;100.00;100897.63;5056218;28;20000;-78
2023/09/24 00:05:47;;;;;;;;;;;;;;;12.01;100.00;100896.22;5055681;28;20347;-78
2023/09/24 00:08:12;;;;;;;;;;;;;;;11.97;100.00;100898.44;5056055;28;19908;-79
2023/09/24 00:10:38;;;;;;;;;;;;;;;11.95;100.00;100901.03;5054659;28;20353;-79
2023/09/24 00:13:03;;;;;;;;;;;;;;;11.94;100.00;100899.44;5056436;28;19908;-79
2023/09/24 00:15:30;;;;;;;;;;;;;;;11.90;100.00;100895.97;5055832;28;19963;-76
2023/09/24 00:17:55;;;;;;;;;;;;;;;11.88;100.00;100895.66;5054420;28;19913;-77
2023/09/24 00:20:21;;;;;;;;;;;;;;;11.87;100.00;100899.78;5054754;28;19916;-78
2023/09/24 00:22:47;;;;;;;;;;;;;;;11.83;100.00;100886.47;5055917;28;19909;-80
2023/09/24 00:25:14;;;;;;;;;;;;;;;11.82;100.00;100887.72;5054404;28;19909;-77
2023/09/24 00:27:39;;;;;;;;;;;;;;;11.81;100.00;100891.88;5055889;28;19919;-78
2023/09/24 00:30:05;;;;;;;;;;;;;;;11.80;100.00;100887.44;5055108;28;20336;-76
2023/09/24 00:32:31;;;;;;;;;;;;;;;11.81;100.00;100888.25;5055704;28;19946;-80
2023/09/24 00:34:56;;;;;;;;;;;;;;;11.81;100.00;100888.25;5056065;28;20289;-79
2023/09/24 00:37:21;;;;;;;;;;;;;;;11.83;100.00;100895.06;5056037;28;19908;-78
2023/09/24 00:39:46;;;;;;;;;;;;;;;11.79;100.00;100894.44;5055479;28;19920;-77
2023/09/24 00:42:13;;;;;;;;;;;;;;;11.79;100.00;100890.78;5055546;28;19912;-79
2023/09/24 00:44:38;;;;;;;;;;;;;;;11.76;100.00;100889.69;5053993;28;19912;-78
2023/09/24 00:47:04;;;;;;;;;;;;;;;11.74;100.00;100895.13;5055730;28;19919;-80
2023/09/24 00:49:29;;;;;;;;;;;;;;;11.72;100.00;100902.59;5055356;28;20336;-79
2023/09/24 00:51:54;;;;;;;;;;;;;;;11.71;100.00;100895.31;5037766;28;20354;-79
2023/09/24 00:54:21;;;;;;;;;;;;;;;11.68;100.00;100899.13;5055393;28;19988;-78
2023/09/24 00:56:46;;;;;;;;;;;;;;;11.66;100.00;100908.22;5054250;28;19909;-77
2023/09/24 00:59:11;;;;;;;;;;;;;;;11.65;100.00;100912.34;5053866;28;19919;-78
2023/09/24 01:01:38;;;;;;;;;;;;;;;11.65;100.00;100909.50;5055024;28;20066;-79
2023/09/24 01:04:07;;;;;;;;;;;;;;;11.65;100.00;100909.50;5037193;28;19962;-78
2023/09/24 01:06:33;;;;;;;;;;;;;;;11.64;100.00;100913.63;5055052;28;20301;-78
2023/09/24 01:08:59;;;;;;;;;;;;;;;11.62;100.00;100926.81;5055010;28;20408;-79
2023/09/24 01:11:27;;;;;;;;;;;;;;;11.60;100.00;100924.47;5053288;28;19919;-78
2023/09/24 01:13:52;;;;;;;;;;;;;;;11.60;100.00;100929.41;5053693;28;19909;-77
2023/09/24 01:16:17;;;;;;;;;;;;;;;11.58;100.00;100932.72;5053442;28;19989;-78
2023/09/24 01:18:44;;;;;;;;;;;;;;;11.58;100.00;100937.66;5054626;28;19909;-77
2023/09/24 01:21:13;;;;;;;;;;;;;;;11.54;100.00;100945.63;5054495;28;19917;-79
2023/09/24 01:23:40;;;;;;;;;;;;;;;11.50;100.00;100947.88;5054697;28;19916;-77
2023/09/24 01:26:07;;;;;;;;;;;;;;;11.47;100.00;100955.34;5054347;28;19951;-79
2023/09/24 01:28:33;;;;;;;;;;;;;;;11.44;100.00;100955.53;5054382;28;19915;-78
2023/09/24 01:30:58;;;;;;;;;;;;;;;11.47;100.00;100963.94;5054456;28;19908;-78
2023/09/24 01:33:23;;;;;;;;;;;;;;;11.46;100.00;100955.84;5056291;28;20274;-78
2023/09/24 01:35:49;;;;;;;;;;;;;;;11.44;100.00;100959.19;5057262;28;19912;-78
2023/09/24 01:38:15;;;;;;;;;;;;;;;11.43;100.00;100962.53;5056848;28;19992;-78
2023/09/24 01:40:41;;;;;;;;;;;;;;;11.43;100.00;100963.31;5053225;28;19917;-78
2023/09/24 01:43:07;;;;;;;;;;;;;;;11.46;100.00;100975.91;5052522;28;19953;-78
2023/09/24 01:45:34;;;;;;;;;;;;;;;11.46;100.00;100975.91;5054149;28;19909;-78
2023/09/24 01:47:59;;;;;;;;;;;;;;;11.46;100.00;100978.75;5054043;28;19970;-79
2023/09/24 01:50:28;;;;;;;;;;;;;;;11.46;100.00;100970.97;5052498;28;20009;-77
2023/09/24 01:52:54;;;;;;;;;;;;;;;11.46;100.00;100978.75;5036487;28;19916;-79
2023/09/24 01:55:19;;;;;;;;;;;;;;;11.50;100.00;100985.88;5053682;28;19913;-77
2023/09/24 01:57:45;;;;;;;;;;;;;;;11.50;100.00;100991.63;5052261;28;19913;-78
2023/09/24 02:00:29;;;;;;;;;;;;;;;11.52;100.00;100991.13;5053823;28;19909;-79
2023/09/24 02:02:57;;;;;;;;;;;;;;;11.53;100.00;101004.94;5053801;28;20007;-77
2023/09/24 02:05:23;;;;;;;;;;;;;;;11.52;100.00;101009.06;5053622;28;20365;-80
2023/09/24 02:07:49;;;;;;;;;;;;;;;11.52;100.00;101011.94;5053538;28;19916;-79
2023/09/24 02:10:18;;;;;;;;;;;;;;;11.52;100.00;101011.19;5053483;28;19966;-78
2023/09/24 02:12:45;;;;;;;;;;;;;;;11.52;100.00;101008.31;5053448;28;19909;-78
2023/09/24 02:15:17;;;;;;;;;;;;;;;11.52;100.00;101003.34;5053557;28;20254;-78
2023/09/24 02:17:43;;;;;;;;;;;;;;;11.56;100.00;101003.19;5053799;28;19908;-79
2023/09/24 02:20:11;;;;;;;;;;;;;;;11.58;100.00;101003.50;5053472;28;19982;-78
2023/09/24 02:22:36;;;;;;;;;;;;;;;11.60;100.00;101004.63;5052300;28;19948;-78
2023/09/24 02:25:02;;;;;;;;;;;;;;;11.49;100.00;101009.25;5052036;28;19931;-78
2023/09/24 02:27:27;;;;;;;;;;;;;;;11.47;100.00;101023.28;5053285;28;19909;-79
2023/09/24 02:29:53;;;;;;;;;;;;;;;11.46;100.00;101018.81;5053444;28;20050;-77
2023/09/24 02:32:18;;;;;;;;;;;;;;;11.46;100.00;101027.41;5052229;28;19919;-78
2023/09/24 02:34:44;;;;;;;;;;;;;;;11.46;100.00;101028.19;5053728;28;19908;-78
2023/09/24 02:37:10;;;;;;;;;;;;;;;11.48;100.00;101034.22;5052113;28;20331;-79
2023/09/24 02:39:35;;;;;;;;;;;;;;;11.49;100.00;101032.94;5052959;28;19915;-78
2023/09/24 02:42:01;;;;;;;;;;;;;;;11.48;100.00;101048.53;5051923;28;19923;-76
2023/09/24 02:44:26;;;;;;;;;;;;;;;11.48;100.00;101042.00;5053093;28;19915;-77
2023/09/24 02:46:51;;;;;;;;;;;;;;;11.49;100.00;101043.59;5053171;28;19908;-78
2023/09/24 02:49:17;;;;;;;;;;;;;;;11.48;100.00;101045.66;5052196;28;19915;-78
2023/09/24 02:51:43;;;;;;;;;;;;;;;11.47;100.00;101052.66;5054555;28;20254;-79
2023/09/24 02:54:08;;;;;;;;;;;;;;;11.47;100.00;101041.22;5053028;28;20091;-79
2023/09/24 02:56:34;;;;;;;;;;;;;;;11.48;100.00;101054.25;5051657;28;20532;-77
2023/09/24 02:58:59;;;;;;;;;;;;;;;11.45;100.00;101049.50;5035222;28;19917;-76
2023/09/24 03:01:25;;;;;;;;;;;;;;;11.45;100.00;101055.22;5051505;28;19917;-77
2023/09/24 03:03:50;;;;;;;;;;;;;;;11.44;100.00;101062.22;5034961;28;19999;-76
2023/09/24 03:06:16;;;;;;;;;;;;;;;11.44;100.00;101056.50;5052823;28;19915;-79
2023/09/24 03:08:41;;;;;;;;;;;;;;;11.45;100.00;101072.41;5052055;28;19908;-78
2023/09/24 03:11:16;;;;;;;;;;;;;;;11.47;100.00;101071.94;5053459;28;19939;-78
2023/09/24 03:13:41;;;;;;;;;;;;;;;11.47;100.00;101066.97;5051901;28;19921;-79
2023/09/24 03:16:07;;;;;;;;;;;;;;;11.51;100.00;101070.47;5051415;28;19909;-77
2023/09/24 03:18:33;;;;;;;;;;;;;;;11.53;100.00;101073.63;5052750;28;19935;-77
2023/09/24 03:20:58;;;;;;;;;;;;;;;11.53;100.00;101072.84;5052478;28;19913;-78
2023/09/24 03:23:24;;;;;;;;;;;;;;;11.51;100.00;101070.47;5052863;28;19909;-78
2023/09/24 03:25:49;;;;;;;;;;;;;;;11.47;100.00;101075.56;5052984;28;19990;-79
2023/09/24 03:28:14;;;;;;;;;;;;;;;11.48;100.00;101082.88;5052727;28;19909;-78
2023/09/24 03:30:40;;;;;;;;;;;;;;;11.49;100.00;101080.81;5052918;28;20023;-78
2023/09/24 03:33:05;;;;;;;;;;;;;;;11.52;100.00;101091.31;5052717;28;19908;-78
2023/09/24 03:35:30;;;;;;;;;;;;;;;11.52;100.00;101086.34;5034784;28;19908;-77
2023/09/24 03:37:56;;;;;;;;;;;;;;;11.56;100.00;101089.88;5052166;28;20234;-78
2023/09/24 03:40:31;;;;;;;;;;;;;;;11.59;100.00;101097.50;5052560;28;19970;-78
2023/09/24 03:42:56;;;;;;;;;;;;;;;11.61;100.00;101108.47;5051491;28;19919;-77
2023/09/24 03:45:25;;;;;;;;;;;;;;;11.61;100.00;101108.47;5053119;28;19909;-78
2023/09/24 03:47:50;;;;;;;;;;;;;;;11.58;100.00;101110.22;5051462;28;19958;-79
2023/09/24 03:50:19;;;;;;;;;;;;;;;11.61;100.00;101122.78;5051451;28;19936;-78
2023/09/24 03:52:45;;;;;;;;;;;;;;;11.61;100.00;101117.84;5052857;28;19959;-78
2023/09/24 03:55:10;;;;;;;;;;;;;;;11.63;100.00;101115.28;5052543;28;19940;-77
2023/09/24 03:57:36;;;;;;;;;;;;;;;11.65;100.00;101115.59;5052390;28;20425;-77
2023/09/24 04:00:06;;;;;;;;;;;;;;;11.69;100.00;101121.97;5052304;28;20457;-78
2023/09/24 04:02:32;;;;;;;;;;;;;;;11.70;100.00;101126.41;5052385;28;19920;-77
2023/09/24 04:04:57;;;;;;;;;;;;;;;11.70;100.00;101123.56;5053618;28;19908;-77
2023/09/24 04:07:22;;;;;;;;;;;;;;;11.69;100.00;101127.69;5056243;28;19909;-78
2023/09/24 04:09:48;;;;;;;;;;;;;;;11.68;100.00;101126.09;5054923;28;19938;-78
2023/09/24 04:12:13;;;;;;;;;;;;;;;11.68;100.00;101126.09;5054686;28;19916;-78
2023/09/24 04:14:39;;;;;;;;;;;;;;;11.69;100.00;101124.81;5038219;28;19992;-78
2023/09/24 04:17:04;;;;;;;;;;;;;;;11.66;100.00;101125.00;5055654;28;19916;-78
2023/09/24 04:19:29;;;;;;;;;;;;;;;11.70;100.00;101135.00;5037672;28;20357;-78
2023/09/24 04:21:55;;;;;;;;;;;;;;;11.75;100.00;101145.00;5037645;28;19913;-78
2023/09/24 04:24:20;;;;;;;;;;;;;;;11.73;100.00;101139.75;5054152;28;19908;-77
2023/09/24 04:26:46;;;;;;;;;;;;;;;11.73;100.00;101134.03;5054117;28;19909;-78
2023/09/24 04:29:12;;;;;;;;;;;;;;;11.73;100.00;101147.56;5054282;28;20003;-78
2023/09/24 04:31:37;;;;;;;;;;;;;;;11.68;100.00;101137.53;5055277;28;19956;-77
2023/09/24 04:34:02;;;;;;;;;;;;;;;11.64;100.00;101144.72;5055689;28;19913;-77
2023/09/24 04:36:28;;;;;;;;;;;;;;;11.61;100.00;101146.47;5055432;28;19997;-77
2023/09/24 04:38:53;;;;;;;;;;;;;;;11.60;100.00;101138.38;5054040;28;19989;-78
2023/09/24 04:41:20;;;;;;;;;;;;;;;11.57;100.00;101151.56;5055114;28;19917;-79
2023/09/24 04:43:46;;;;;;;;;;;;;;;11.56;100.00;101155.72;5054036;28;19908;-78
2023/09/24 04:46:11;;;;;;;;;;;;;;;11.56;100.00;101152.84;5056484;28;19908;-77
2023/09/24 04:48:36;;;;;;;;;;;;;;;11.52;100.00;101160.78;5055760;28;19917;-77
2023/09/24 04:51:02;;;;;;;;;;;;;;;11.47;100.00;101161.41;5055187;28;19909;-78
2023/09/24 04:53:27;;;;;;;;;;;;;;;11.43;100.00;101162.84;5053922;28;20007;-78
2023/09/24 04:55:53;;;;;;;;;;;;;;;11.38;100.00;101162.22;5055136;28;20003;-77
2023/09/24 04:58:18;;;;;;;;;;;;;;;11.34;100.00;101178.78;5055112;28;19909;-78
2023/09/24 05:00:43;;;;;;;;;;;;;;;11.31;100.00;101181.81;5053621;28;19915;-78
2023/09/24 05:03:09;;;;;;;;;;;;;;;11.32;100.00;101187.03;5054784;28;19982;-78
2023/09/24 05:05:34;;;;;;;;;;;;;;;11.36;100.00;101198.34;5055393;28;19947;-78
2023/09/24 05:08:02;;;;;;;;;;;;;;;11.37;100.00;101203.56;5053546;28;20329;-77
2023/09/24 05:10:27;;;;;;;;;;;;;;;11.38;100.00;101204.34;5055140;28;20281;-77
2023/09/24 05:12:52;;;;;;;;;;;;;;;11.40;100.00;101208.34;5054936;28;19909;-78
2023/09/24 05:15:17;;;;;;;;;;;;;;;11.45;100.00;101218.34;5053208;28;19995;-78
2023/09/24 05:17:43;;;;;;;;;;;;;;;11.52;100.00;101225.84;5053398;28;19909;-78
2023/09/24 05:20:09;;;;;;;;;;;;;;;11.57;100.00;101225.19;5054898;28;19958;-78
2023/09/24 05:22:34;;;;;;;;;;;;;;;11.63;100.00;101226.13;5054464;28;20399;-77
2023/09/24 05:24:59;;;;;;;;;;;;;;;11.67;100.00;101236.16;5054594;28;19912;-77
2023/09/24 05:27:29;;;;;;;;;;;;;;;11.69;100.00;101235.69;5053151;28;19913;-78
2023/09/24 05:29:54;;;;;;;;;;;;;;;11.73;100.00;101237.13;5054631;28;19916;-77
2023/09/24 05:32:19;;;;;;;;;;;;;;;11.76;100.00;101238.25;5054436;28;19912;-78
2023/09/24 05:34:44;;;;;;;;;;;;;;;11.79;100.00;101240.13;5054591;28;19904;-79
2023/09/24 05:37:10;;;;;;;;;;;;;;;11.85;100.00;101235.38;5054574;28;20433;-78
2023/09/24 05:39:35;;;;;;;;;;;;;;;11.92;100.00;101237.09;5054542;28;19908;-78
2023/09/24 05:42:01;;;;;;;;;;;;;;;11.97;100.00;101248.69;5053062;28;19913;-77
2023/09/24 05:44:26;;;;;;;;;;;;;;;12.04;100.00;101250.44;5054480;28;20358;-78
2023/09/24 05:46:51;;;;;;;;;;;;;;;12.15;100.00;101267.94;5054392;28;19908;-78
2023/09/24 05:49:16;;;;;;;;;;;;;;;12.23;100.00;101264.25;5052788;28;19909;-77
2023/09/24 05:51:42;;;;;;;;;;;;;;;12.39;100.00;101270.94;5054063;28;20007;-80
2023/09/24 05:54:10;;;;;;;;;;;;;;;12.70;100.00;101271.47;5054095;28;19912;-80
2023/09/24 05:56:35;;;;;;;;;;;;;;;13.22;100.00;101281.56;5053942;28;19951;-77
2023/09/24 05:59:00;;;;;;;;;;;;;;;13.82;100.00;101266.94;5053918;28;20330;-78
2023/09/24 06:01:26;;;;;;;;;;;;;;;14.64;100.00;101263.22;5053670;28;19913;-78
2023/09/24 06:03:51;;;;;;;;;;;;;;;15.45;100.00;101274.91;5053968;28;19999;-78
2023/09/24 06:06:17;;;;;;;;;;;;;;;16.17;100.00;101268.44;5053821;28;19909;-79
2023/09/24 06:08:43;;;;;;;;;;;;;;;16.79;100.00;101271.41;5053792;28;19994;-80
2023/09/24 06:11:09;;;;;;;;;;;;;;;17.35;100.00;101272.53;5052196;28;19966;-77
2023/09/24 06:13:34;;;;;;;;;;;;;;;17.84;100.00;101279.88;5053675;28;19913;-77
2023/09/24 06:15:59;;;;;;;;;;;;;;;18.37;100.00;101278.22;5052091;28;19939;-76
2023/09/24 06:18:25;;;;;;;;;;;;;;;19.07;100.00;101275.03;5053697;28;19932;-77
2023/09/24 06:20:50;;;;;;;;;;;;;;;19.67;100.00;101269.63;5052177;28;19982;-77
2023/09/24 06:23:15;;;;;;;;;;;;;;;20.24;100.00;101270.94;5052380;28;20302;-80
2023/09/24 06:25:41;;;;;;;;;;;;;;;20.68;100.00;101261.91;5035652;28;19915;-78
2023/09/24 06:28:09;;;;;;;;;;;;;;;20.96;100.00;101260.88;5053099;28;20313;-80
2023/09/24 06:30:35;;;;;;;;;;;;;;;21.13;100.00;101264.41;5051986;28;19909;-77
2023/09/24 06:33:00;;;;;;;;;;;;;;;21.34;100.00;101265.50;5053292;28;19913;-77
2023/09/24 06:35:26;;;;;;;;;;;;;;;21.64;100.00;101271.25;5053734;28;19978;-77
2023/09/24 06:37:51;;;;;;;;;;;;;;;21.93;100.00;101272.47;5053528;28;19948;-78
2023/09/24 06:40:16;;;;;;;;;;;;;;;22.17;100.00;101280.38;5052056;28;19924;-78
2023/09/24 06:42:42;;;;;;;;;;;;;;;22.35;100.00;101273.75;5051978;28;20003;-77
2023/09/24 06:45:08;;;;;;;;;;;;;;;22.45;100.00;101280.75;5052068;28;19916;-78
2023/09/24 06:47:34;;;;;;;;;;;;;;;22.56;100.00;101276.88;5053424;28;19908;-78
2023/09/24 06:49:59;;;;;;;;;;;;;;;22.56;100.00;101274.75;5053119;28;19916;-81
2023/09/24 06:52:26;;;;;;;;;;;;;;;22.58;100.00;101274.97;5053356;28;19912;-79
2023/09/24 06:54:51;;;;;;;;;;;;;;;22.44;100.00;101279.97;5053390;28;19997;-77
2023/09/24 06:57:17;;;;;;;;;;;;;;;22.29;100.00;101285.47;5051941;28;20354;-76
2023/09/24 06:59:42;;;;;;;;;;;;;;;22.10;100.00;101294.19;5053243;28;19909;-77
2023/09/24 07:02:09;;;;;;;;;;;;;;;21.93;100.00;101295.75;5052939;28;20338;-78
2023/09/24 07:04:34;;;;;;;;;;;;;;;21.74;100.00;101297.84;5053259;28;19947;-78
2023/09/24 07:06:59;;;;;;;;;;;;;;;21.52;100.00;101301.81;5053061;28;19913;-78
2023/09/24 07:09:25;;;;;;;;;;;;;;;21.54;100.00;101302.03;5052958;28;19912;-78
2023/09/24 07:11:50;;;;;;;;;;;;;;;21.77;100.00;101300.47;5053076;28;20265;-78
2023/09/24 07:14:15;;;;;;;;;;;;;;;21.94;100.00;101301.03;5052967;28;19999;-79
2023/09/24 07:16:40;;;;;;;;;;;;;;;22.04;100.00;101313.84;5051789;28;19970;-77
2023/09/24 07:19:06;;;;;;;;;;;;;;;21.93;100.00;101311.09;5052916;28;19915;-76
2023/09/24 07:21:32;;;;;;;;;;;;;;;21.74;100.00;101310.28;5051637;28;19913;-78
2023/09/24 07:23:58;;;;;;;;;;;;;;;21.64;100.00;101309.06;5052812;28;19931;-76
2023/09/24 07:26:23;;;;;;;;;;;;;;;21.57;100.00;101310.50;5052871;28;20274;-80
2023/09/24 07:28:49;;;;;;;;;;;;;;;21.38;100.00;101321.25;5052572;28;20357;-79
2023/09/24 07:31:19;;;;;;;;;;;;;;;21.43;100.00;101311.69;5053103;28;19916;-77
2023/09/24 07:33:45;;;;;;;;;;;;;;;21.77;100.00;101315.03;5052774;28;19920;-78
2023/09/24 07:36:11;;;;;;;;;;;;;;;22.22;100.00;101323.19;5052798;28;19908;-79
2023/09/24 07:38:36;;;;;;;;;;;;;;;22.67;100.00;101317.50;5051450;28;19915;-78
2023/09/24 07:41:02;;;;;;;;;;;;;;;23.11;100.00;101316.75;5055541;28;19970;-77
2023/09/24 07:43:27;;;;;;;;;;;;;;;23.54;100.00;101322.34;5056465;28;20380;-77
2023/09/24 07:45:53;;;;;;;;;;;;;;;23.90;100.00;101316.06;5056641;28;19932;-76
2023/09/24 07:48:18;;;;;;;;;;;;;;;24.25;100.00;101321.41;5056733;28;19953;-76
2023/09/24 07:50:53;;;;;;;;;;;;;;;24.59;100.00;101321.44;5056565;28;20316;-78
2023/09/24 07:53:19;;;;;;;;;;;;;;;24.84;100.00;101321.91;5055381;28;20358;-79
2023/09/24 07:55:45;;;;;;;;;;;;;;;25.03;94.81;101325.44;5056515;28;19908;-80
2023/09/24 07:58:10;;;;;;;;;;;;;;;25.10;99.87;101323.91;5056604;28;20373;-79
2023/09/24 08:00:36;;;;;;;;;;;;;;;25.01;95.71;101334.78;5056693;28;19908;-78
2023/09/24 08:03:02;;;;;;;;;;;;;;;24.98;100.00;101327.16;5057014;28;19943;-78
2023/09/24 08:05:27;;;;;;;;;;;;;;;25.08;100.00;101333.28;5055756;28;19913;-78
2023/09/24 08:07:52;;;;;;;;;;;;;;;25.13;100.00;101329.44;5056300;28;19939;-77
2023/09/24 08:10:18;;;;;;;;;;;;;;;25.21;100.00;101341.19;5055022;28;19952;-82
2023/09/24 08:12:43;;;;;;;;;;;;;;;25.24;98.62;101340.81;5056933;28;19919;-81
2023/09/24 08:15:08;;;;;;;;;;;;;;;25.22;96.44;101340.63;5055443;28;20007;-81
2023/09/24 08:17:34;;;;;;;;;;;;;;;25.15;98.38;101343.47;5056695;28;19916;-79
2023/09/24 08:19:59;;;;;;;;;;;;;;;25.17;97.90;101344.47;5055062;28;19970;-78
2023/09/24 08:22:25;;;;;;;;;;;;;;;25.14;95.15;101344.81;5055935;28;20378;-78
2023/09/24 08:24:50;;;;;;;;;;;;;;;25.00;96.55;101350.75;5054840;28;19912;-77
2023/09/24 08:27:15;;;;;;;;;;;;;;;24.91;98.01;101356.31;5055843;28;20011;-78
2023/09/24 08:29:40;;;;;;;;;;;;;;;24.77;97.17;101363.53;5056177;28;19915;-78
2023/09/24 08:32:06;;;;;;;;;;;;;;;24.61;98.34;101362.56;5056184;28;19915;-78
2023/09/24 08:34:31;;;;;;;;;;;;;;;24.55;100.00;101359.78;5055847;28;20350;-79
2023/09/24 08:36:56;;;;;;;;;;;;;;;24.58;100.00;101363.72;5055801;28;19969;-78
2023/09/24 08:39:22;;;;;;;;;;;;;;;24.52;98.78;101363.84;5055534;28;20312;-78
2023/09/24 08:41:47;;;;;;;;;;;;;;;24.39;100.00;101360.19;5054187;28;19913;-79
2023/09/24 08:44:13;;;;;;;;;;;;;;;24.36;100.00;101361.28;5055704;28;20269;-77
2023/09/24 08:46:38;;;;;;;;;;;;;;;24.43;100.00;101367.25;5055976;28;19912;-78
2023/09/24 08:49:04;;;;;;;;;;;;;;;24.47;100.00;101367.69;5054316;28;19944;-78
2023/09/24 08:51:31;;;;;;;;;;;;;;;24.43;100.00;101369.38;5037572;28;19916;-77
2023/09/24 08:53:56;;;;;;;;;;;;;;;24.27;100.00;101367.59;5054621;28;19908;-79
2023/09/24 08:56:23;;;;;;;;;;;;;;;24.14;100.00;101371.31;5055186;28;19915;-78
2023/09/24 08:58:48;;;;;;;;;;;;;;;24.15;100.00;101375.78;5055311;28;20064;-77
2023/09/24 09:01:13;;;;;;;;;;;;;;;24.14;100.00;101372.09;5053972;28;20022;-78
2023/09/24 09:03:39;;;;;;;;;;;;;;;24.07;100.00;101369.84;5055333;28;19909;-77
2023/09/24 09:06:04;;;;;;;;;;;;;;;24.02;100.00;101372.88;5055308;28;19908;-80
2023/09/24 09:08:36;;;;;;;;;;;;;;;23.93;100.00;101371.22;5055192;28;19989;-78
2023/09/24 09:11:02;;;;;;;;;;;;;;;23.87;100.00;101382.22;5037038;28;20012;-78
2023/09/24 09:13:27;;;;;;;;;;;;;;;23.80;100.00;101389.50;5055243;28;19991;-78
2023/09/24 09:16:08;;;;;;;;;;;;;;;23.60;100.00;101387.25;5054234;28;19908;-77
2023/09/24 09:18:35;;;;;;;;;;;;;;;23.61;100.00;101388.00;5055343;28;19912;-78
2023/09/24 09:21:00;;;;;;;;;;;;;;;23.68;100.00;101385.22;5055288;28;19920;-78
2023/09/24 09:23:29;;;;;;;;;;;;;;;23.71;100.00;101389.94;5053957;28;19912;-78
2023/09/24 09:25:55;;;;;;;;;;;;;;;23.77;100.00;101381.06;5054019;28;19908;-78
2023/09/24 09:28:20;;;;;;;;;;;;;;;23.76;100.00;101389.03;5054999;28;19973;-78
2023/09/24 09:31:07;;;;;;;;;;;;;;;23.68;100.00;101381.53;5054916;28;19991;-79
2023/09/24 09:33:36;;;;;;;;;;;;;;;23.65;100.00;101382.66;5054909;28;19916;-77
2023/09/24 09:36:02;;;;;;;;;;;;;;;23.67;100.00;101383.66;5054993;28;20372;-79
2023/09/24 09:38:27;;;;;;;;;;;;;;;23.70;100.00;101387.59;5054658;28;19908;-78
2023/09/24 09:40:56;;;;;;;;;;;;;;;23.61;100.00;101385.88;5054407;28;19925;-76
2023/09/24 09:43:23;;;;;;;;;;;;;;;23.55;100.00;101375.69;5054689;28;19912;-79
2023/09/24 09:45:48;;;;;;;;;;;;;;;23.52;100.00;101382.59;5054530;28;19909;-79
2023/09/24 09:48:14;;;;;;;;;;;;;;;23.53;100.00;101384.97;5053523;28;19916;-79
2023/09/24 09:50:41;;;;;;;;;;;;;;;23.68;100.00;101381.53;5053262;28;19908;-78
2023/09/24 09:53:09;;;;;;;;;;;;;;;23.82;100.00;101385.22;5054764;28;19973;-77
2023/09/24 09:55:36;;;;;;;;;;;;;;;23.82;100.00;101385.22;5054842;28;19960;-78
2023/09/24 09:58:01;;;;;;;;;;;;;;;23.76;100.00;101383.22;5053422;28;19912;-80
2023/09/24 10:00:27;;;;;;;;;;;;;;;23.76;100.00;101385.34;5053244;28;19916;-78
2023/09/24 10:02:54;;;;;;;;;;;;;;;23.78;100.00;101383.44;5035460;28;20316;-79
2023/09/24 10:05:19;;;;;;;;;;;;;;;23.79;100.00;101385.03;5036742;28;20327;-76
2023/09/24 10:07:45;;;;;;;;;;;;;;;23.70;100.00;101378.84;5053421;28;19915;-79
2023/09/24 10:10:29;;;;;;;;;;;;;;;23.59;100.00;101385.69;5054499;28;20413;-77
2023/09/24 10:12:54;;;;;;;;;;;;;;;23.62;100.00;101383.75;5054269;28;19908;-78
2023/09/24 10:15:23;;;;;;;;;;;;;;;23.64;100.00;101387.69;5054257;28;20340;-78
2023/09/24 10:18:08;;;;;;;;;;;;;;;23.57;100.00;101382.53;5054191;28;19908;-78
2023/09/24 10:20:49;;;;;;;;;;;;;;;23.41;100.00;101383.56;5052613;28;19944;-79
2023/09/24 10:23:29;;;;;;;;;;;;;;;23.24;100.00;101388.94;5054006;28;19909;-81
2023/09/24 10:25:59;;;;;;;;;;;;;;;23.00;100.00;101392.00;5053996;28;20273;-78
2023/09/24 10:28:43;;;;;;;;;;;;;;;22.87;100.00;101386.88;5035863;28;19981;-78
2023/09/24 10:31:10;;;;;;;;;;;;;;;22.94;100.00;101392.06;5054002;28;19912;-76
2023/09/24 10:33:54;;;;;;;;;;;;;;;22.93;100.00;101390.50;5054228;28;20346;-79
2023/09/24 10:36:30;;;;;;;;;;;;;;;22.86;100.00;101396.94;5053833;28;19909;-79
2023/09/24 10:39:05;;;;;;;;;;;;;;;22.84;100.00;101394.59;5053870;28;20373;-78
2023/09/24 10:41:32;;;;;;;;;;;;;;;22.88;100.00;101386.31;5052299;28;19973;-79
2023/09/24 10:44:16;;;;;;;;;;;;;;;22.78;100.00;101382.22;5053678;28;20406;-79
2023/09/24 10:46:41;;;;;;;;;;;;;;;22.57;100.00;101380.44;5053439;28;19913;-78
2023/09/24 10:49:06;;;;;;;;;;;;;;;22.35;100.00;101382.31;5052272;28;19967;-79
2023/09/24 10:51:31;;;;;;;;;;;;;;;22.19;100.00;101380.41;5053555;28;19920;-80
2023/09/24 10:54:15;;;;;;;;;;;;;;;22.18;100.00;101380.94;5053864;28;20380;-79
2023/09/24 10:56:44;;;;;;;;;;;;;;;22.15;100.00;101377.00;5053830;28;19919;-77
2023/09/24 10:59:10;;;;;;;;;;;;;;;22.12;100.00;101378.09;5053220;28;20007;-77
2023/09/24 11:01:35;;;;;;;;;;;;;;;22.15;100.00;101377.00;5053191;28;20377;-78
2023/09/24 11:04:00;;;;;;;;;;;;;;;22.24;100.00;101375.84;5051769;28;19919;-78
2023/09/24 11:06:31;;;;;;;;;;;;;;;22.32;100.00;101379.72;5053740;28;19980;-78
2023/09/24 11:09:12;;;;;;;;;;;;;;;22.33;100.00;101372.53;5053693;28;19908;-77
2023/09/24 11:11:38;;;;;;;;;;;;;;;22.34;100.00;101374.91;5053306;28;19909;-77
2023/09/24 11:14:22;;;;;;;;;;;;;;;22.31;100.00;101373.09;5055000;28;19909;-78
2023/09/24 11:16:50;;;;;;;;;;;;;;;22.22;100.00;101373.50;5040219;28;19913;-77
2023/09/24 11:19:34;;;;;;;;;;;;;;;22.15;100.00;101379.91;5057733;28;19908;-77
2023/09/24 11:22:00;;;;;;;;;;;;;;;22.06;100.00;101375.25;5056952;28;19913;-78
2023/09/24 11:24:25;;;;;;;;;;;;;;;22.03;100.00;101375.53;5055695;28;19970;-79
2023/09/24 11:26:50;;;;;;;;;;;;;;;21.98;100.00;101374.28;5057461;28;20377;-77
2023/09/24 11:29:16;;;;;;;;;;;;;;;21.93;100.00;101369.31;5056118;28;19916;-75
2023/09/24 11:31:44;;;;;;;;;;;;;;;21.81;100.00;101370.78;5057296;28;20266;-79
2023/09/24 11:34:11;;;;;;;;;;;;;;;21.61;100.00;101374.19;5055751;28;19971;-78
2023/09/24 11:36:36;;;;;;;;;;;;;;;21.41;100.00;101375.41;5056862;28;19909;-77
2023/09/24 11:39:02;;;;;;;;;;;;;;;21.18;100.00;101371.94;5057113;28;20306;-77
2023/09/24 11:41:28;;;;;;;;;;;;;;;20.98;100.00;101375.28;5056550;28;19924;-78
2023/09/24 11:43:56;;;;;;;;;;;;;;;20.92;100.00;101371.63;5056960;28;19912;-79
2023/09/24 11:46:28;;;;;;;;;;;;;;;20.88;100.00;101365.31;5055255;28;19909;-77
2023/09/24 11:48:55;;;;;;;;;;;;;;;20.95;100.00;101366.81;5055551;28;19966;-78
2023/09/24 11:51:20;;;;;;;;;;;;;;;21.04;100.00;101360.69;5056603;28;19915;-80
2023/09/24 11:53:45;;;;;;;;;;;;;;;21.18;100.00;101366.13;5038873;28;19908;-78
2023/09/24 11:56:11;;;;;;;;;;;;;;;21.29;100.00;101353.56;5057479;28;19913;-78
2023/09/24 11:58:37;;;;;;;;;;;;;;;21.32;100.00;101357.53;5056964;28;20324;-77
2023/09/24 12:01:04;;;;;;;;;;;;;;;21.36;100.00;101360.91;5056520;28;19916;-77
2023/09/24 12:03:29;;;;;;;;;;;;;;;21.34;100.00;101354.84;5056208;28;20372;-80
2023/09/24 12:05:54;;;;;;;;;;;;;;;21.30;100.00;101360.19;5056457;28;19909;-80
2023/09/24 12:08:20;;;;;;;;;;;;;;;21.19;100.00;101361.06;5056194;28;19962;-77
2023/09/24 12:10:50;;;;;;;;;;;;;;;21.16;100.00;101354.22;5055365;28;20262;-79
2023/09/24 12:13:17;;;;;;;;;;;;;;;21.15;100.00;101343.94;5056373;28;19958;-78
2023/09/24 12:15:43;;;;;;;;;;;;;;;21.18;100.00;101354.50;5056372;28;19908;-78
2023/09/24 12:18:08;;;;;;;;;;;;;;;21.29;100.00;101349.91;5056119;28;19956;-78
2023/09/24 12:20:34;;;;;;;;;;;;;;;21.45;100.00;101341.03;5055781;28;20350;-78
2023/09/24 12:23:01;;;;;;;;;;;;;;;21.65;100.00;101349.28;5055767;28;19913;-79
2023/09/24 12:25:26;;;;;;;;;;;;;;;21.84;100.00;101343.50;5054998;28;19920;-78